首页
METAR-TAF:

METAR-TAF

机场 :

愛麗斯泉, 澳大利亚

愛麗斯泉機場

纬度: 23-48S, 经度: 133-53E, 海拔: 545米

当前天气观测

该预报发布于12分钟前的13:05 UTC
风速23节,风向东转东北,有时为33节阵风
温度 29°C
湿度 40%
气压 1012 hPa
能见度10公里或以上

METAR: YBAS 171305Z AUTO 07023G33KT 9999 // NCD 29/14 Q1012

时间: 22:47 (13:17 UTC)

预报

该预报发布于1小时和41分钟前的11:36 UTC
预报有效从17日的 12点(UTC)到 18日的 12点(UTC)
风速10节,风向北转东北
能见度10公里或以上
1500米以下无云,无积雨云
短暂存在
从 17日的 12点(UTC)到 17日的 14点(UTC)
风速25节,风向多变,有时为40节阵风
能見度: 2000
多云层高于3000英尺
散云层高于4000英尺, 积雨云.
雷暴, 雨

TAF: YBAS 171136Z 1712/1812 03010KT CAVOK TEMPO 1712/1714 VRB25G40KT 2000 TSRA BKN030 SCT040CB

超过4000个机场的气象观测和天气预报(METAR&TAF报告)。

可查询的气象台以黄色和红色小点在地图上表示。

将鼠标移到小点上方,可查看气象台名称。

然后点击查看天气观测和预报。

如需切换地图:点击带黑十字的绿色按钮放大地图;点击带横线的绿色按钮缩小地图;或者点击绿色箭头查看邻近地区的地图。


METAR-TAF: